Time;durP1;ratioP1;P1;durP2;ratioP2;P2;SDS_P1;SDS_P2;PMS_P1;PMS_P2;Temp;Humidity;BMP_temperature;BMP_pressure;BME280_temperature;BME280_humidity;BME280_pressure;Samples;Min_cycle;Max_cycle;Signal;HPM_P1;HPM_P2
2023/11/04 00:00:28;;;;;;;6.90;3.30;;;;;;;;;;5096325;28;20569;-62
2023/11/04 00:02:55;;;;;;;4.30;3.30;;;;;;;;;;5104363;28;20471;-63
2023/11/04 00:05:22;;;;;;;5.77;3.20;;;;;;;;;;5085844;28;20456;-62
2023/11/04 00:07:51;;;;;;;4.00;3.60;;;;;;;;;;5103904;28;20534;-62
2023/11/04 00:10:17;;;;;;;7.97;3.67;;;;;;;;;;5093446;28;20500;-62
2023/11/04 00:12:44;;;;;;;3.97;3.40;;;;;;;;;;5102064;28;20446;-62
2023/11/04 00:15:10;;;;;;;3.33;3.03;;;;;;;;;;5096589;28;20716;-62
2023/11/04 00:17:37;;;;;;;3.17;2.90;;;;;;;;;;5089694;28;20451;-62
2023/11/04 00:20:03;;;;;;;6.60;3.87;;;;;;;;;;5102186;28;20586;-62
2023/11/04 00:22:30;;;;;;;5.00;3.23;;;;;;;;;;5098752;28;20451;-62
2023/11/04 00:24:58;;;;;;;4.63;3.20;;;;;;;;;;5103989;28;20522;-63
2023/11/04 00:27:24;;;;;;;3.37;3.07;;;;;;;;;;5092056;28;20478;-63
2023/11/04 00:29:50;;;;;;;4.00;3.07;;;;;;;;;;5096132;28;20455;-62
2023/11/04 00:32:16;;;;;;;6.10;3.70;;;;;;;;;;5099176;28;20446;-63
2023/11/04 00:34:43;;;;;;;2.83;2.63;;;;;;;;;;5104402;28;20296;-63
2023/11/04 00:37:10;;;;;;;2.63;2.43;;;;;;;;;;5102647;28;20824;-62
2023/11/04 00:39:36;;;;;;;3.10;2.90;;;;;;;;;;5095504;28;20489;-62
2023/11/04 00:42:04;;;;;;;4.40;3.37;;;;;;;;;;5110618;28;20533;-62
2023/11/04 00:44:30;;;;;;;3.23;2.80;;;;;;;;;;5094062;28;21008;-62
2023/11/04 00:46:57;;;;;;;3.10;2.90;;;;;;;;;;5099973;28;20737;-63
2023/11/04 00:49:23;;;;;;;3.57;2.73;;;;;;;;;;5119054;28;20683;-62
2023/11/04 00:51:49;;;;;;;3.50;2.87;;;;;;;;;;5103133;28;20462;-63
2023/11/04 00:54:16;;;;;;;5.00;2.87;;;;;;;;;;5110645;28;20438;-62
2023/11/04 00:56:42;;;;;;;4.13;3.10;;;;;;;;;;5104747;28;20489;-62
2023/11/04 00:59:10;;;;;;;5.30;2.80;;;;;;;;;;5085786;28;20855;-62
2023/11/04 01:01:36;;;;;;;4.00;3.43;;;;;;;;;;5101634;28;20512;-62
2023/11/04 01:04:03;;;;;;;5.07;3.60;;;;;;;;;;5100105;28;20525;-62
2023/11/04 01:06:29;;;;;;;4.50;3.17;;;;;;;;;;5095591;28;20554;-62
2023/11/04 01:08:55;;;;;;;6.50;3.57;;;;;;;;;;5099529;28;20525;-62
2023/11/04 01:11:22;;;;;;;5.00;3.17;;;;;;;;;;5100242;28;20530;-62
2023/11/04 01:13:48;;;;;;;3.33;3.03;;;;;;;;;;5107050;28;20959;-62
2023/11/04 01:16:16;;;;;;;3.63;2.80;;;;;;;;;;5091478;28;21043;-62
2023/11/04 01:18:42;;;;;;;3.70;2.80;;;;;;;;;;5096556;28;20477;-62
2023/11/04 01:21:09;;;;;;;6.10;2.37;;;;;;;;;;5099263;28;20518;-62
2023/11/04 01:23:36;;;;;;;6.90;3.20;;;;;;;;;;5100975;28;20528;-62
2023/11/04 01:26:02;;;;;;;3.87;3.30;;;;;;;;;;5102533;28;20983;-62
2023/11/04 01:28:30;;;;;;;3.20;2.73;;;;;;;;;;5098827;28;20454;-62
2023/11/04 01:30:56;;;;;;;3.17;2.87;;;;;;;;;;5097453;28;20471;-63
2023/11/04 01:33:26;;;;;;;5.00;2.40;;;;;;;;;;5093866;28;20450;-62
2023/11/04 01:35:52;;;;;;;2.73;2.53;;;;;;;;;;5101752;28;20785;-62
2023/11/04 01:38:18;;;;;;;2.93;2.73;;;;;;;;;;5100498;28;20511;-62
2023/11/04 01:40:48;;;;;;;3.60;3.03;;;;;;;;;;5098055;28;20483;-62
2023/11/04 01:43:22;;;;;;;4.27;2.50;;;;;;;;;;5097807;28;21240;-63
2023/11/04 01:45:51;;;;;;;2.90;2.40;;;;;;;;;;5103932;28;20550;-62
2023/11/04 01:48:18;;;;;;;2.50;2.30;;;;;;;;;;5104446;28;20451;-62
2023/11/04 01:50:46;;;;;;;4.83;2.33;;;;;;;;;;5098685;28;21049;-62
2023/11/04 01:53:14;;;;;;;3.70;2.20;;;;;;;;;;5105374;28;20637;-63
2023/11/04 01:55:41;;;;;;;3.17;2.97;;;;;;;;;;5109067;28;20453;-62
2023/11/04 01:58:08;;;;;;;2.73;2.37;;;;;;;;;;5099498;28;20448;-62
2023/11/04 02:00:35;;;;;;;3.77;2.87;;;;;;;;;;5111295;28;20470;-63
2023/11/04 02:03:02;;;;;;;3.30;3.00;;;;;;;;;;5099219;28;20903;-62
2023/11/04 02:05:28;;;;;;;4.60;3.90;;;;;;;;;;5100432;28;20554;-63
2023/11/04 02:07:58;;;;;;;5.80;3.37;;;;;;;;;;5106455;28;20486;-63
2023/11/04 02:10:25;;;;;;;3.07;2.87;;;;;;;;;;5094496;28;21044;-63
2023/11/04 02:12:51;;;;;;;6.87;2.73;;;;;;;;;;5097687;28;20447;-63
2023/11/04 02:15:20;;;;;;;3.87;2.50;;;;;;;;;;5096227;28;20487;-63
2023/11/04 02:17:47;;;;;;;3.03;2.63;;;;;;;;;;5096243;28;20470;-63
2023/11/04 02:20:15;;;;;;;5.17;2.90;;;;;;;;;;5095842;28;20574;-63
2023/11/04 02:22:42;;;;;;;2.20;2.10;;;;;;;;;;5103048;28;20522;-63
2023/11/04 02:25:09;;;;;;;5.30;2.83;;;;;;;;;;5107472;28;20625;-63
2023/11/04 02:27:35;;;;;;;2.93;2.17;;;;;;;;;;5104794;28;20477;-63
2023/11/04 02:30:02;;;;;;;2.17;1.97;;;;;;;;;;5097203;28;20451;-63
2023/11/04 02:32:30;;;;;;;6.83;2.10;;;;;;;;;;5096718;28;20462;-63
2023/11/04 02:34:56;;;;;;;2.17;1.90;;;;;;;;;;5094620;28;20452;-63
2023/11/04 02:37:23;;;;;;;3.30;2.57;;;;;;;;;;5101928;28;20453;-63
2023/11/04 02:39:50;;;;;;;4.70;2.60;;;;;;;;;;5092209;28;20444;-63
2023/11/04 02:42:17;;;;;;;2.27;2.17;;;;;;;;;;5108280;28;20491;-62
2023/11/04 02:44:43;;;;;;;4.17;2.27;;;;;;;;;;5094558;28;20520;-62
2023/11/04 02:47:10;;;;;;;6.50;2.20;;;;;;;;;;5104890;28;20462;-62
2023/11/04 02:49:36;;;;;;;3.83;2.37;;;;;;;;;;5099447;28;20549;-62
2023/11/04 02:52:02;;;;;;;2.10;1.90;;;;;;;;;;5113993;28;20513;-63
2023/11/04 02:54:29;;;;;;;3.87;2.37;;;;;;;;;;5104724;28;20483;-62
2023/11/04 02:56:57;;;;;;;2.70;2.20;;;;;;;;;;5092665;28;20518;-62
2023/11/04 02:59:24;;;;;;;2.40;2.30;;;;;;;;;;5100504;28;20535;-62
2023/11/04 03:01:50;;;;;;;2.10;2.00;;;;;;;;;;5103565;28;20493;-62
2023/11/04 03:04:17;;;;;;;2.10;1.90;;;;;;;;;;5091572;28;20931;-63
2023/11/04 03:06:43;;;;;;;2.67;2.47;;;;;;;;;;5095377;28;20586;-62
2023/11/04 03:09:10;;;;;;;3.43;3.17;;;;;;;;;;5096146;28;20467;-62
2023/11/04 03:11:37;;;;;;;2.30;2.20;;;;;;;;;;5100811;28;21159;-62
2023/11/04 03:14:05;;;;;;;2.20;2.10;;;;;;;;;;5097920;28;20443;-62
2023/11/04 03:16:31;;;;;;;2.50;2.30;;;;;;;;;;5097399;28;20785;-62
2023/11/04 03:18:58;;;;;;;2.57;2.20;;;;;;;;;;5091807;28;20462;-62
2023/11/04 03:21:24;;;;;;;5.40;2.50;;;;;;;;;;5102857;28;20510;-63
2023/11/04 03:23:51;;;;;;;2.60;2.47;;;;;;;;;;5098236;28;20526;-62
2023/11/04 03:26:18;;;;;;;2.07;1.73;;;;;;;;;;5094307;28;20550;-62
2023/11/04 03:28:45;;;;;;;2.13;1.97;;;;;;;;;;5095746;28;20443;-62
2023/11/04 03:31:12;;;;;;;8.20;2.33;;;;;;;;;;5098688;28;20482;-62
2023/11/04 03:33:39;;;;;;;2.47;2.37;;;;;;;;;;5097342;28;20497;-62
2023/11/04 03:36:07;;;;;;;2.23;2.13;;;;;;;;;;5102871;28;20460;-63
2023/11/04 03:38:33;;;;;;;6.67;2.90;;;;;;;;;;5099500;28;20460;-63
2023/11/04 03:41:00;;;;;;;2.53;2.33;;;;;;;;;;5084377;28;21329;-63
2023/11/04 03:43:26;;;;;;;3.00;2.70;;;;;;;;;;5101278;28;20507;-64
2023/11/04 03:45:52;;;;;;;2.27;2.17;;;;;;;;;;5102656;28;20539;-63
2023/11/04 03:48:20;;;;;;;3.00;2.80;;;;;;;;;;5099509;28;20511;-63
2023/11/04 03:50:47;;;;;;;2.53;2.43;;;;;;;;;;5093315;28;20833;-63
2023/11/04 03:53:13;;;;;;;5.87;3.17;;;;;;;;;;5096969;28;20473;-63
2023/11/04 03:55:39;;;;;;;2.70;2.50;;;;;;;;;;5098072;28;20612;-63
2023/11/04 03:58:06;;;;;;;2.67;2.43;;;;;;;;;;5094984;28;20475;-63
2023/11/04 04:00:32;;;;;;;3.20;3.00;;;;;;;;;;5089040;28;20515;-63
2023/11/04 04:02:59;;;;;;;2.53;2.40;;;;;;;;;;5096489;28;20491;-62
2023/11/04 04:05:27;;;;;;;2.57;2.37;;;;;;;;;;5103562;28;20482;-63
2023/11/04 04:07:54;;;;;;;2.77;2.57;;;;;;;;;;5108968;28;20439;-63
2023/11/04 04:10:20;;;;;;;8.63;2.90;;;;;;;;;;5111929;28;20500;-63
2023/11/04 04:12:47;;;;;;;5.37;2.30;;;;;;;;;;5106390;28;20817;-63
2023/11/04 04:15:13;;;;;;;2.80;2.60;;;;;;;;;;5102137;28;20536;-63
2023/11/04 04:17:40;;;;;;;2.60;2.40;;;;;;;;;;5102698;28;20871;-64
2023/11/04 04:20:07;;;;;;;2.67;2.47;;;;;;;;;;5107285;28;20518;-63
2023/11/04 04:22:34;;;;;;;2.40;2.30;;;;;;;;;;5102833;28;20908;-63
2023/11/04 04:25:01;;;;;;;2.53;2.40;;;;;;;;;;5099770;28;20576;-63
2023/11/04 04:27:27;;;;;;;2.63;2.50;;;;;;;;;;5112149;28;20487;-64
2023/11/04 04:29:53;;;;;;;3.00;2.90;;;;;;;;;;5098784;28;20514;-63
2023/11/04 04:32:20;;;;;;;2.60;2.43;;;;;;;;;;5105849;28;20486;-63
2023/11/04 04:34:46;;;;;;;3.80;3.60;;;;;;;;;;5105075;28;20481;-63
2023/11/04 04:37:13;;;;;;;2.80;2.60;;;;;;;;;;5095825;28;20809;-63
2023/11/04 04:39:41;;;;;;;3.00;2.90;;;;;;;;;;5108262;28;20450;-64
2023/11/04 04:42:07;;;;;;;3.00;2.30;;;;;;;;;;5104642;28;20478;-63
2023/11/04 04:44:34;;;;;;;3.10;2.80;;;;;;;;;;5104775;28;20813;-63
2023/11/04 04:47:01;;;;;;;2.87;2.67;;;;;;;;;;5096275;28;20457;-64
2023/11/04 04:49:27;;;;;;;2.50;2.30;;;;;;;;;;5106442;28;20536;-64
2023/11/04 04:51:54;;;;;;;2.70;2.60;;;;;;;;;;5105462;28;20478;-64
2023/11/04 04:54:20;;;;;;;3.20;2.30;;;;;;;;;;5105586;28;20455;-63
2023/11/04 04:56:49;;;;;;;4.83;2.50;;;;;;;;;;5101219;28;20482;-63
2023/11/04 04:59:15;;;;;;;2.80;2.60;;;;;;;;;;5101271;28;20457;-63
2023/11/04 05:01:42;;;;;;;2.60;2.50;;;;;;;;;;5106504;28;20544;-63
2023/11/04 05:04:08;;;;;;;3.80;2.40;;;;;;;;;;5106284;28;20481;-64
2023/11/04 05:06:35;;;;;;;2.57;2.47;;;;;;;;;;5111982;28;20454;-64
2023/11/04 05:09:01;;;;;;;2.50;2.30;;;;;;;;;;5101559;28;20534;-63
2023/11/04 05:11:28;;;;;;;2.80;2.60;;;;;;;;;;5098108;28;20478;-63
2023/11/04 05:13:55;;;;;;;2.70;2.50;;;;;;;;;;5105200;28;20952;-63
2023/11/04 05:16:22;;;;;;;3.93;3.10;;;;;;;;;;5107323;28;20451;-63
2023/11/04 05:18:48;;;;;;;2.50;2.40;;;;;;;;;;5097889;28;20519;-63
2023/11/04 05:21:16;;;;;;;2.90;2.70;;;;;;;;;;5104325;28;20558;-63
2023/11/04 05:23:42;;;;;;;3.50;2.60;;;;;;;;;;5103888;28;20452;-63
2023/11/04 05:26:09;;;;;;;2.70;2.60;;;;;;;;;;5100956;28;20520;-63
2023/11/04 05:28:35;;;;;;;2.40;2.30;;;;;;;;;;5111895;28;20538;-64
2023/11/04 05:31:04;;;;;;;2.40;2.30;;;;;;;;;;5102926;28;20454;-63
2023/11/04 05:33:30;;;;;;;5.33;2.50;;;;;;;;;;5112062;28;20445;-63
2023/11/04 05:35:57;;;;;;;2.80;2.70;;;;;;;;;;5100133;28;20783;-63
2023/11/04 05:38:27;;;;;;;2.60;2.50;;;;;;;;;;5107740;28;20857;-63
2023/11/04 05:40:53;;;;;;;2.43;2.27;;;;;;;;;;5104377;28;20462;-63
2023/11/04 05:43:19;;;;;;;2.70;2.60;;;;;;;;;;5102501;28;20529;-63
2023/11/04 05:45:46;;;;;;;2.50;2.40;;;;;;;;;;5095070;28;20455;-64
2023/11/04 05:48:14;;;;;;;2.40;2.30;;;;;;;;;;5098365;28;20505;-63
2023/11/04 05:50:40;;;;;;;2.40;2.27;;;;;;;;;;5097882;28;20510;-63
2023/11/04 05:53:07;;;;;;;2.47;2.27;;;;;;;;;;5094166;28;20536;-63
2023/11/04 05:55:33;;;;;;;1.83;1.73;;;;;;;;;;5100497;28;20518;-63
2023/11/04 05:58:01;;;;;;;1.93;1.83;;;;;;;;;;5093623;28;20478;-63
2023/11/04 06:00:28;;;;;;;2.23;2.03;;;;;;;;;;5102656;28;20464;-64
2023/11/04 06:02:54;;;;;;;2.10;2.00;;;;;;;;;;5105370;28;20512;-63
2023/11/04 06:05:23;;;;;;;3.40;2.00;;;;;;;;;;5094942;28;20455;-63
2023/11/04 06:07:50;;;;;;;1.80;1.70;;;;;;;;;;5102064;28;20467;-63
2023/11/04 06:10:16;;;;;;;1.97;1.87;;;;;;;;;;5099558;28;20553;-62
2023/11/04 06:12:43;;;;;;;1.80;1.70;;;;;;;;;;5094918;28;20541;-63
2023/11/04 06:15:10;;;;;;;2.77;2.57;;;;;;;;;;5098066;28;20518;-63
2023/11/04 06:17:37;;;;;;;2.57;2.40;;;;;;;;;;5096041;28;21015;-63
2023/11/04 06:20:05;;;;;;;2.50;2.30;;;;;;;;;;5100665;28;20839;-63
2023/11/04 06:22:33;;;;;;;2.33;2.23;;;;;;;;;;5099656;28;20472;-63
2023/11/04 06:25:00;;;;;;;2.50;2.30;;;;;;;;;;5095352;28;20480;-62
2023/11/04 06:27:26;;;;;;;3.53;2.37;;;;;;;;;;5095886;28;20533;-63
2023/11/04 06:29:53;;;;;;;2.30;2.20;;;;;;;;;;5092327;28;20456;-63
2023/11/04 06:32:19;;;;;;;2.30;2.20;;;;;;;;;;5093701;28;20542;-62
2023/11/04 06:34:46;;;;;;;2.37;2.27;;;;;;;;;;5093790;28;20971;-63
2023/11/04 06:37:14;;;;;;;3.10;2.27;;;;;;;;;;5092335;28;20931;-64
2023/11/04 06:39:42;;;;;;;2.67;2.47;;;;;;;;;;5097572;28;20449;-64
2023/11/04 06:42:10;;;;;;;2.80;2.60;;;;;;;;;;5093655;28;20566;-64
2023/11/04 06:44:36;;;;;;;2.70;2.60;;;;;;;;;;5094362;28;20439;-65
2023/11/04 06:47:02;;;;;;;2.73;2.53;;;;;;;;;;5101483;28;20451;-62
2023/11/04 06:49:29;;;;;;;2.53;2.30;;;;;;;;;;5110243;28;20585;-62
2023/11/04 06:51:55;;;;;;;2.57;2.37;;;;;;;;;;5103102;28;20467;-63
2023/11/04 06:54:22;;;;;;;2.63;2.53;;;;;;;;;;5094243;28;20494;-62
2023/11/04 06:56:50;;;;;;;2.90;2.70;;;;;;;;;;5098441;28;20735;-63
2023/11/04 06:59:17;;;;;;;2.53;2.40;;;;;;;;;;5097902;28;20439;-63
2023/11/04 07:01:47;;;;;;;2.30;2.10;;;;;;;;;;5102933;28;21062;-63
2023/11/04 07:04:14;;;;;;;2.50;2.33;;;;;;;;;;5107360;28;20438;-63
2023/11/04 07:06:40;;;;;;;2.43;2.33;;;;;;;;;;5094272;28;20482;-62
2023/11/04 07:09:08;;;;;;;2.20;2.10;;;;;;;;;;5103792;28;20445;-69
2023/11/04 07:11:35;;;;;;;2.80;2.60;;;;;;;;;;5093329;28;20807;-64
2023/11/04 07:14:02;;;;;;;2.57;2.47;;;;;;;;;;5109635;28;20869;-64
2023/11/04 07:16:29;;;;;;;2.80;2.40;;;;;;;;;;5094978;28;20462;-64
2023/11/04 07:18:55;;;;;;;2.80;2.50;;;;;;;;;;5093377;28;20470;-64
2023/11/04 07:21:22;;;;;;;2.63;2.43;;;;;;;;;;5097785;28;20451;-64
2023/11/04 07:23:48;;;;;;;2.30;2.20;;;;;;;;;;5101389;28;20532;-65
2023/11/04 07:26:15;;;;;;;2.53;2.43;;;;;;;;;;5098234;28;20564;-64
2023/11/04 07:28:41;;;;;;;2.53;2.43;;;;;;;;;;5097949;28;21052;-66
2023/11/04 07:31:09;;;;;;;2.63;2.47;;;;;;;;;;5096146;28;20450;-64
2023/11/04 07:33:36;;;;;;;2.73;2.53;;;;;;;;;;5089592;28;20471;-64
2023/11/04 07:36:02;;;;;;;2.50;2.30;;;;;;;;;;5101144;28;20535;-63
2023/11/04 07:38:29;;;;;;;2.87;2.67;;;;;;;;;;5101612;28;20526;-63
2023/11/04 07:40:55;;;;;;;2.43;2.33;;;;;;;;;;5099490;28;20523;-64
2023/11/04 07:43:22;;;;;;;2.90;2.70;;;;;;;;;;5099913;28;20565;-63
2023/11/04 07:45:48;;;;;;;2.70;2.60;;;;;;;;;;5097211;28;20458;-64
2023/11/04 07:48:16;;;;;;;4.33;2.50;;;;;;;;;;5104367;28;20454;-64
2023/11/04 07:50:42;;;;;;;2.80;2.70;;;;;;;;;;5090117;28;21074;-63
2023/11/04 07:53:09;;;;;;;3.33;3.13;;;;;;;;;;5096344;28;20450;-64
2023/11/04 07:55:36;;;;;;;2.53;2.43;;;;;;;;;;5106256;28;20457;-64
2023/11/04 07:58:03;;;;;;;3.00;2.80;;;;;;;;;;5104534;28;20702;-64
2023/11/04 08:00:30;;;;;;;2.50;2.40;;;;;;;;;;5095740;28;20467;-64
2023/11/04 08:02:57;;;;;;;2.73;2.50;;;;;;;;;;5086305;28;20486;-64
2023/11/04 08:05:25;;;;;;;2.20;2.10;;;;;;;;;;5096595;28;20435;-63
2023/11/04 08:07:51;;;;;;;2.80;2.60;;;;;;;;;;5096250;28;20486;-63
2023/11/04 08:10:18;;;;;;;2.80;2.60;;;;;;;;;;5107918;28;20459;-64
2023/11/04 08:12:44;;;;;;;3.23;2.83;;;;;;;;;;5103166;28;20495;-64
2023/11/04 08:15:12;;;;;;;3.60;3.40;;;;;;;;;;5102226;28;20459;-64
2023/11/04 08:17:38;;;;;;;2.83;2.63;;;;;;;;;;5099154;28;20520;-63
2023/11/04 08:20:08;;;;;;;3.00;2.80;;;;;;;;;;5099822;28;20484;-63
2023/11/04 08:22:37;;;;;;;3.27;2.97;;;;;;;;;;5096934;28;20507;-64
2023/11/04 08:25:06;;;;;;;2.93;2.73;;;;;;;;;;5096179;28;20520;-64
2023/11/04 08:27:32;;;;;;;2.63;2.47;;;;;;;;;;5095179;28;20460;-64
2023/11/04 08:29:59;;;;;;;2.87;2.77;;;;;;;;;;5101768;28;20451;-64
2023/11/04 08:32:25;;;;;;;3.00;2.47;;;;;;;;;;5096433;28;20514;-64
2023/11/04 08:34:52;;;;;;;2.73;2.63;;;;;;;;;;5100802;28;20522;-64
2023/11/04 08:37:18;;;;;;;3.10;2.80;;;;;;;;;;5094255;28;20550;-64
2023/11/04 08:39:46;;;;;;;2.60;2.40;;;;;;;;;;5091743;28;20527;-64
2023/11/04 08:42:12;;;;;;;3.10;2.90;;;;;;;;;;5088688;28;20486;-64
2023/11/04 08:44:39;;;;;;;3.20;3.00;;;;;;;;;;5101298;28;20438;-64
2023/11/04 08:47:05;;;;;;;3.43;3.23;;;;;;;;;;5105088;28;20451;-64
2023/11/04 08:49:32;;;;;;;3.73;3.53;;;;;;;;;;5102925;28;20502;-64
2023/11/04 08:51:59;;;;;;;3.33;3.20;;;;;;;;;;5102722;28;20462;-64
2023/11/04 08:54:25;;;;;;;3.03;2.83;;;;;;;;;;5091172;28;20460;-64
2023/11/04 08:56:53;;;;;;;3.47;3.17;;;;;;;;;;5103528;28;20456;-64
2023/11/04 08:59:19;;;;;;;3.10;2.90;;;;;;;;;;5092244;28;20482;-64
2023/11/04 09:01:47;;;;;;;3.27;3.07;;;;;;;;;;5094907;28;20530;-65
2023/11/04 09:04:13;;;;;;;3.27;3.07;;;;;;;;;;5102778;28;20474;-65
2023/11/04 09:06:40;;;;;;;3.23;3.07;;;;;;;;;;5102947;28;20467;-65
2023/11/04 09:09:07;;;;;;;3.20;3.00;;;;;;;;;;5101410;28;20459;-65
2023/11/04 09:11:33;;;;;;;3.20;3.00;;;;;;;;;;5094544;28;20467;-65
2023/11/04 09:14:04;;;;;;;3.37;3.17;;;;;;;;;;5094103;28;20896;-66
2023/11/04 09:16:31;;;;;;;3.90;3.70;;;;;;;;;;5097665;28;20450;-64
2023/11/04 09:18:58;;;;;;;3.60;3.37;;;;;;;;;;5109853;28;20450;-64
2023/11/04 09:21:25;;;;;;;3.10;2.90;;;;;;;;;;5102849;28;21220;-64
2023/11/04 09:23:51;;;;;;;3.60;3.33;;;;;;;;;;5097978;28;20553;-62
2023/11/04 09:26:18;;;;;;;3.20;3.00;;;;;;;;;;5104659;28;20538;-62
2023/11/04 09:28:44;;;;;;;3.10;2.90;;;;;;;;;;5097574;28;21009;-62
2023/11/04 09:31:13;;;;;;;3.50;3.30;;;;;;;;;;5104111;28;20902;-62
2023/11/04 09:33:39;;;;;;;4.50;3.00;;;;;;;;;;5096609;28;20435;-62
2023/11/04 09:36:07;;;;;;;3.70;3.50;;;;;;;;;;5101782;28;21007;-62
2023/11/04 09:38:34;;;;;;;3.20;3.00;;;;;;;;;;5102109;28;20451;-62
2023/11/04 09:41:00;;;;;;;3.30;3.00;;;;;;;;;;5098516;28;20454;-62
2023/11/04 09:43:27;;;;;;;3.03;2.83;;;;;;;;;;5107448;28;20496;-62
2023/11/04 09:45:53;;;;;;;4.50;3.37;;;;;;;;;;5111230;28;20474;-62
2023/11/04 09:48:23;;;;;;;3.53;3.33;;;;;;;;;;5098786;28;20845;-62
2023/11/04 09:50:50;;;;;;;5.77;3.20;;;;;;;;;;5101839;28;20447;-62
2023/11/04 09:53:23;;;;;;;3.50;3.30;;;;;;;;;;5099717;28;20482;-62
2023/11/04 09:55:51;;;;;;;4.00;3.80;;;;;;;;;;5092795;28;20466;-62
2023/11/04 09:58:18;;;;;;;3.80;3.60;;;;;;;;;;5103533;28;20960;-62
2023/11/04 10:00:46;;;;;;;3.40;3.20;;;;;;;;;;5098268;28;20501;-62
2023/11/04 10:03:12;;;;;;;3.33;3.10;;;;;;;;;;5095055;28;20658;-62
2023/11/04 10:05:40;;;;;;;3.17;2.97;;;;;;;;;;5095965;28;20496;-62
2023/11/04 10:08:07;;;;;;;3.90;3.43;;;;;;;;;;5100152;28;20470;-61
2023/11/04 10:10:33;;;;;;;3.53;3.33;;;;;;;;;;5097305;28;20838;-61
2023/11/04 10:13:00;;;;;;;3.67;3.37;;;;;;;;;;5105698;28;20446;-61
2023/11/04 10:15:26;;;;;;;3.00;2.90;;;;;;;;;;5098520;28;20465;-61
2023/11/04 10:17:53;;;;;;;3.50;3.30;;;;;;;;;;5091060;28;20476;-61
2023/11/04 10:20:20;;;;;;;3.60;3.40;;;;;;;;;;5091907;28;20467;-61
2023/11/04 10:22:48;;;;;;;3.30;3.10;;;;;;;;;;5090820;28;20471;-61
2023/11/04 10:25:14;;;;;;;4.03;3.30;;;;;;;;;;5096688;28;20497;-61
2023/11/04 10:27:41;;;;;;;3.30;3.10;;;;;;;;;;5093536;28;20491;-61
2023/11/04 10:30:08;;;;;;;3.13;3.00;;;;;;;;;;5094327;28;20476;-61
2023/11/04 10:32:36;;;;;;;3.40;3.13;;;;;;;;;;5096570;28;20459;-61
2023/11/04 10:35:03;;;;;;;3.37;2.87;;;;;;;;;;5094923;28;20562;-61
2023/11/04 10:37:31;;;;;;;3.20;3.10;;;;;;;;;;5099279;28;20454;-61
2023/11/04 10:40:05;;;;;;;3.70;3.40;;;;;;;;;;5095902;28;20479;-61
2023/11/04 10:42:31;;;;;;;3.80;3.60;;;;;;;;;;5091877;28;20467;-61
2023/11/04 10:44:59;;;;;;;3.70;3.50;;;;;;;;;;5094320;28;20477;-61
2023/11/04 10:47:30;;;;;;;3.40;3.20;;;;;;;;;;5089011;28;20459;-60
2023/11/04 10:49:59;;;;;;;4.10;3.80;;;;;;;;;;5089688;28;20519;-61
2023/11/04 10:52:29;;;;;;;3.10;3.00;;;;;;;;;;5099104;28;20443;-61
2023/11/04 10:55:00;;;;;;;3.83;3.63;;;;;;;;;;5091611;28;20522;-62
2023/11/04 10:57:29;;;;;;;3.23;3.03;;;;;;;;;;5089513;28;20461;-60
2023/11/04 11:00:02;;;;;;;3.20;3.00;;;;;;;;;;5093114;28;20558;-62
2023/11/04 11:02:28;;;;;;;3.30;3.00;;;;;;;;;;5093616;28;20474;-61
2023/11/04 11:04:56;;;;;;;3.60;3.30;;;;;;;;;;5087048;28;20506;-68
2023/11/04 11:07:23;;;;;;;3.40;3.13;;;;;;;;;;5095089;28;20451;-67
2023/11/04 11:09:49;;;;;;;3.33;2.73;;;;;;;;;;5096830;28;20479;-67
2023/11/04 11:12:17;;;;;;;3.10;2.90;;;;;;;;;;5095517;28;20442;-67
2023/11/04 11:14:45;;;;;;;4.73;3.80;;;;;;;;;;5103010;28;20939;-64
2023/11/04 11:17:12;;;;;;;3.30;3.00;;;;;;;;;;5090421;28;20504;-67
2023/11/04 11:19:45;;;;;;;2.93;2.73;;;;;;;;;;5093036;28;20520;-66
2023/11/04 11:22:21;;;;;;;2.73;2.53;;;;;;;;;;5090473;28;20502;-67
2023/11/04 11:24:48;;;;;;;2.77;2.60;;;;;;;;;;5098376;28;20520;-65
2023/11/04 11:27:14;;;;;;;3.60;3.30;;;;;;;;;;5106126;28;20820;-65
2023/11/04 11:29:47;;;;;;;3.03;2.83;;;;;;;;;;5099465;28;21016;-65
2023/11/04 11:32:13;;;;;;;4.90;3.33;;;;;;;;;;5100542;28;20466;-65
2023/11/04 11:34:48;;;;;;;3.60;3.40;;;;;;;;;;5100081;28;20492;-65
2023/11/04 11:37:17;;;;;;;3.27;3.07;;;;;;;;;;5104643;28;20519;-66
2023/11/04 11:39:43;;;;;;;3.40;3.10;;;;;;;;;;5110091;28;20808;-65
2023/11/04 11:42:10;;;;;;;3.23;3.07;;;;;;;;;;5100270;28;20512;-65
2023/11/04 11:44:36;;;;;;;6.40;3.60;;;;;;;;;;5111217;28;20532;-65
2023/11/04 11:47:04;;;;;;;2.83;2.73;;;;;;;;;;5101484;28;20455;-66
2023/11/04 11:49:31;;;;;;;3.17;3.03;;;;;;;;;;5106442;28;20859;-63
2023/11/04 11:51:58;;;;;;;3.40;3.20;;;;;;;;;;5110920;28;21369;-62
2023/11/04 11:54:24;;;;;;;3.83;3.53;;;;;;;;;;5105389;28;20443;-65
2023/11/04 11:56:50;;;;;;;3.60;3.40;;;;;;;;;;5107385;28;20485;-65
2023/11/04 11:59:16;;;;;;;3.23;3.03;;;;;;;;;;5101351;28;20493;-65
2023/11/04 12:01:43;;;;;;;3.20;3.10;;;;;;;;;;5100337;28;20228;-65
2023/11/04 12:04:11;;;;;;;3.60;3.40;;;;;;;;;;5100534;28;20472;-65
2023/11/04 12:06:39;;;;;;;5.20;4.10;;;;;;;;;;5099924;28;20545;-65
2023/11/04 12:09:06;;;;;;;2.97;2.80;;;;;;;;;;5114392;28;20477;-65
2023/11/04 12:11:33;;;;;;;3.87;3.53;;;;;;;;;;5105228;28;20819;-65
2023/11/04 12:14:00;;;;;;;3.83;3.53;;;;;;;;;;5114636;28;20438;-65
2023/11/04 12:16:28;;;;;;;3.17;3.07;;;;;;;;;;5104585;28;20542;-65
2023/11/04 12:18:55;;;;;;;3.20;3.00;;;;;;;;;;5097657;28;20506;-65
2023/11/04 12:21:22;;;;;;;3.60;3.40;;;;;;;;;;5106683;28;20484;-65
2023/11/04 12:23:49;;;;;;;3.50;3.20;;;;;;;;;;5092895;28;20521;-65
2023/11/04 12:26:16;;;;;;;4.43;3.70;;;;;;;;;;5092908;28;20482;-65
2023/11/04 12:28:43;;;;;;;3.50;3.30;;;;;;;;;;5093587;28;20519;-65
2023/11/04 12:31:12;;;;;;;2.87;2.77;;;;;;;;;;5089765;28;20525;-65
2023/11/04 12:33:42;;;;;;;3.33;3.13;;;;;;;;;;5098052;28;20474;-65
2023/11/04 12:36:10;;;;;;;3.13;2.90;;;;;;;;;;5098112;28;20477;-65
2023/11/04 12:38:39;;;;;;;2.60;2.50;;;;;;;;;;5095137;28;20901;-65
2023/11/04 12:41:09;;;;;;;3.03;2.80;;;;;;;;;;5094901;28;20505;-65
2023/11/04 12:43:36;;;;;;;3.83;3.57;;;;;;;;;;5116056;28;20888;-65
2023/11/04 12:46:03;;;;;;;3.30;3.00;;;;;;;;;;5112169;28;20439;-65
2023/11/04 12:48:29;;;;;;;3.57;3.13;;;;;;;;;;5102683;28;20488;-66
2023/11/04 12:50:56;;;;;;;3.37;3.17;;;;;;;;;;5116085;28;20480;-65
2023/11/04 12:53:23;;;;;;;3.60;3.30;;;;;;;;;;5102913;28;20514;-65
2023/11/04 12:55:54;;;;;;;3.10;2.90;;;;;;;;;;5094224;28;20443;-65
2023/11/04 12:58:20;;;;;;;3.30;3.00;;;;;;;;;;5095443;28;20477;-65
2023/11/04 13:00:46;;;;;;;3.60;3.40;;;;;;;;;;5094704;28;20516;-65
2023/11/04 13:03:13;;;;;;;3.10;2.90;;;;;;;;;;5093505;28;20486;-65
2023/11/04 13:05:40;;;;;;;3.13;2.97;;;;;;;;;;5093465;28;20812;-65
2023/11/04 13:08:07;;;;;;;3.30;3.00;;;;;;;;;;5095410;28;20460;-65
2023/11/04 13:10:34;;;;;;;3.80;2.70;;;;;;;;;;5100369;28;20446;-65
2023/11/04 13:13:02;;;;;;;2.83;2.63;;;;;;;;;;5098521;28;20462;-65
2023/11/04 13:15:28;;;;;;;4.60;2.70;;;;;;;;;;5098165;28;20451;-65
2023/11/04 13:17:55;;;;;;;3.10;2.90;;;;;;;;;;5094870;28;20448;-65
2023/11/04 13:20:21;;;;;;;3.10;3.00;;;;;;;;;;5094732;28;20466;-65
2023/11/04 13:22:48;;;;;;;3.00;2.60;;;;;;;;;;5093873;28;20490;-65
2023/11/04 13:25:14;;;;;;;3.40;2.70;;;;;;;;;;5100692;28;21269;-64
2023/11/04 13:27:41;;;;;;;3.80;3.60;;;;;;;;;;5115802;28;20460;-64
2023/11/04 13:30:10;;;;;;;3.70;3.50;;;;;;;;;;5106740;28;20454;-64
2023/11/04 13:32:36;;;;;;;3.70;3.33;;;;;;;;;;5108493;28;20454;-65
2023/11/04 13:35:03;;;;;;;2.57;2.43;;;;;;;;;;5116994;28;20439;-65
2023/11/04 13:37:30;;;;;;;3.57;2.97;;;;;;;;;;5107898;28;20821;-65
2023/11/04 13:39:56;;;;;;;3.30;3.10;;;;;;;;;;5116518;28;20670;-67
2023/11/04 13:42:23;;;;;;;3.67;3.37;;;;;;;;;;5104490;28;20451;-67
2023/11/04 13:44:49;;;;;;;2.97;2.77;;;;;;;;;;5100911;28;20469;-66
2023/11/04 13:47:17;;;;;;;3.30;3.10;;;;;;;;;;5107991;28;20458;-67
2023/11/04 13:49:45;;;;;;;3.40;3.20;;;;;;;;;;5105673;28;20912;-67
2023/11/04 13:52:11;;;;;;;2.70;2.60;;;;;;;;;;5100148;28;20456;-68
2023/11/04 13:54:38;;;;;;;3.50;3.20;;;;;;;;;;5103820;28;20455;-66
2023/11/04 13:57:04;;;;;;;3.60;3.40;;;;;;;;;;5093028;28;20463;-65
2023/11/04 13:59:31;;;;;;;3.70;3.40;;;;;;;;;;5100512;28;21018;-65
2023/11/04 14:01:57;;;;;;;3.10;2.90;;;;;;;;;;5096565;28;20540;-64
2023/11/04 14:04:25;;;;;;;3.50;3.30;;;;;;;;;;5105272;28;20542;-66
2023/11/04 14:06:51;;;;;;;6.47;3.20;;;;;;;;;;5103088;28;20522;-65
2023/11/04 14:09:18;;;;;;;3.47;3.17;;;;;;;;;;5101051;28;20941;-63
2023/11/04 14:11:44;;;;;;;3.27;3.07;;;;;;;;;;5100036;28;20538;-71
2023/11/04 14:14:11;;;;;;;2.87;2.67;;;;;;;;;;5098317;28;20447;-71
2023/11/04 14:16:37;;;;;;;3.23;2.63;;;;;;;;;;5095522;28;20443;-70
2023/11/04 14:19:04;;;;;;;2.83;2.63;;;;;;;;;;5101726;28;20486;-70
2023/11/04 14:21:32;;;;;;;2.67;2.47;;;;;;;;;;5106096;28;20547;-70
2023/11/04 14:23:59;;;;;;;2.63;2.00;;;;;;;;;;5095717;28;20535;-70
2023/11/04 14:26:25;;;;;;;2.30;2.10;;;;;;;;;;5097094;28;20509;-71
2023/11/04 14:28:51;;;;;;;2.97;2.10;;;;;;;;;;5107223;28;20942;-70
2023/11/04 14:31:18;;;;;;;3.83;2.60;;;;;;;;;;5100265;28;20443;-70
2023/11/04 14:33:44;;;;;;;2.70;2.40;;;;;;;;;;5100778;28;20443;-71
2023/11/04 14:36:11;;;;;;;6.97;2.47;;;;;;;;;;5098656;28;20463;-70
2023/11/04 14:38:39;;;;;;;3.10;2.80;;;;;;;;;;5089746;28;20524;-69
2023/11/04 14:41:06;;;;;;;9.80;2.47;;;;;;;;;;5089116;28;20527;-70